createdAt,value
2018-12-11T00:00:48.040Z,4.75
2018-12-11T00:01:48.031Z,4.75
2018-12-11T00:02:48.029Z,4.67
2018-12-11T00:03:48.005Z,4.70
2018-12-11T00:04:47.995Z,4.67
2018-12-11T00:05:47.985Z,4.73
2018-12-11T00:06:47.974Z,4.67
2018-12-11T00:07:47.963Z,4.72
2018-12-11T00:08:47.953Z,4.70
2018-12-11T00:09:47.941Z,4.75
2018-12-11T00:10:47.931Z,4.72
2018-12-11T00:11:47.919Z,4.67
2018-12-11T00:12:47.908Z,4.73
2018-12-11T00:13:47.901Z,4.70
2018-12-11T00:14:47.885Z,4.70
2018-12-11T00:15:47.876Z,4.69
2018-12-11T00:16:47.864Z,4.67
2018-12-11T00:17:47.854Z,4.69
2018-12-11T00:18:47.841Z,4.69
2018-12-11T00:19:47.833Z,4.65
2018-12-11T00:20:47.821Z,4.62
2018-12-11T00:21:47.808Z,4.65
2018-12-11T00:22:47.798Z,4.65
2018-12-11T00:23:47.789Z,4.65
2018-12-11T00:24:47.778Z,4.65
2018-12-11T00:25:47.764Z,4.69
2018-12-11T00:26:47.753Z,4.65
2018-12-11T00:27:47.765Z,4.65
2018-12-11T00:28:47.732Z,4.75
2018-12-11T00:29:47.723Z,4.62
2018-12-11T00:30:47.713Z,4.65
2018-12-11T00:31:47.698Z,4.52
2018-12-11T00:32:47.688Z,4.62
2018-12-11T00:33:47.676Z,4.57
2018-12-11T00:34:47.668Z,4.46
2018-12-11T00:35:47.655Z,4.57
2018-12-11T00:36:47.644Z,4.54
2018-12-11T00:37:47.632Z,4.50
2018-12-11T00:38:47.621Z,4.51
2018-12-11T00:39:47.610Z,4.57
2018-12-11T00:40:47.599Z,4.46
2018-12-11T00:41:47.590Z,4.54
2018-12-11T00:42:47.578Z,4.54
2018-12-11T00:43:47.568Z,4.51
2018-12-11T00:44:47.555Z,4.54
2018-12-11T00:45:47.544Z,4.50
2018-12-11T00:46:47.536Z,4.54
2018-12-11T00:47:47.525Z,4.57
2018-12-11T00:48:47.517Z,4.64
2018-12-11T00:49:47.501Z,4.54
2018-12-11T00:50:47.489Z,4.50
2018-12-11T00:51:47.478Z,4.54
2018-12-11T00:52:47.469Z,4.62
2018-12-11T00:53:47.457Z,4.55
2018-12-11T00:54:47.446Z,4.61
2018-12-11T00:55:47.434Z,4.65
2018-12-11T00:56:47.423Z,4.62
2018-12-11T00:57:47.412Z,4.64
2018-12-11T00:58:47.403Z,4.64
2018-12-11T00:59:47.392Z,4.72
2018-12-11T01:00:47.380Z,4.65
2018-12-11T01:01:47.368Z,4.65
2018-12-11T01:02:47.358Z,4.67
2018-12-11T01:03:47.347Z,4.73
2018-12-11T01:04:47.336Z,4.75
2018-12-11T01:05:47.326Z,4.65
2018-12-11T01:06:47.314Z,4.69
2018-12-11T01:07:47.303Z,4.70
2018-12-11T01:08:47.293Z,4.64
2018-12-11T01:09:47.281Z,4.72
2018-12-11T01:10:47.269Z,4.67
2018-12-11T01:11:47.260Z,4.65
2018-12-11T01:12:47.248Z,4.73
2018-12-11T01:13:47.241Z,4.70
2018-12-11T01:14:47.227Z,4.75
2018-12-11T01:15:47.218Z,4.69
2018-12-11T01:16:47.204Z,4.73
2018-12-11T01:17:47.193Z,4.69
2018-12-11T01:18:47.181Z,4.76
2018-12-11T01:19:47.174Z,4.72
2018-12-11T01:20:47.159Z,4.67
2018-12-11T01:21:47.150Z,4.73
2018-12-11T01:22:47.139Z,4.67
2018-12-11T01:23:47.130Z,4.67
2018-12-11T01:24:47.117Z,4.65
2018-12-11T01:25:47.109Z,4.70
2018-12-11T01:26:47.095Z,4.70
2018-12-11T01:27:47.083Z,4.72
2018-12-11T01:28:47.072Z,4.70
2018-12-11T01:29:47.060Z,4.70
2018-12-11T01:30:47.050Z,4.69
2018-12-11T01:31:47.040Z,4.79
2018-12-11T01:32:47.031Z,4.79
2018-12-11T01:33:47.017Z,4.75
2018-12-11T01:34:47.007Z,4.72
2018-12-11T01:35:46.995Z,4.67
2018-12-11T01:36:46.985Z,4.72
2018-12-11T01:37:46.973Z,4.72
2018-12-11T01:38:46.963Z,4.73
2018-12-11T01:39:46.951Z,4.80
2018-12-11T01:40:46.940Z,4.67
2018-12-11T01:41:46.931Z,4.73
2018-12-11T01:42:46.918Z,4.65
2018-12-11T01:43:46.908Z,4.67
2018-12-11T01:44:46.897Z,4.65
2018-12-11T01:45:46.886Z,4.73
2018-12-11T01:46:46.880Z,4.73
2018-12-11T01:47:46.864Z,4.69
2018-12-11T01:48:46.852Z,4.69
2018-12-11T01:49:46.847Z,4.69
2018-12-11T01:50:46.830Z,4.75
2018-12-11T01:51:46.820Z,4.73
2018-12-11T01:52:46.808Z,4.69
2018-12-11T01:53:46.799Z,4.70
2018-12-11T01:54:46.787Z,4.69
2018-12-11T01:55:46.775Z,4.67
2018-12-11T01:56:46.772Z,4.67
2018-12-11T01:57:46.758Z,4.69
2018-12-11T01:58:46.743Z,4.67
2018-12-11T01:59:46.733Z,4.70
2018-12-11T02:00:46.722Z,4.67
2018-12-11T02:01:46.710Z,4.73
2018-12-11T02:02:46.701Z,4.75
2018-12-11T02:03:46.687Z,4.73
2018-12-11T02:04:46.677Z,4.65
2018-12-11T02:05:46.666Z,4.70
2018-12-11T02:06:46.658Z,4.72
2018-12-11T02:07:46.644Z,4.75
2018-12-11T02:08:46.632Z,4.72
2018-12-11T02:09:46.625Z,4.72
2018-12-11T02:10:46.611Z,4.70
2018-12-11T02:11:46.600Z,4.75
2018-12-11T02:12:46.589Z,4.75
2018-12-11T02:13:46.580Z,4.79
2018-12-11T02:14:46.568Z,4.79
2018-12-11T02:15:46.558Z,4.79
2018-12-11T02:16:46.545Z,4.80
2018-12-11T02:17:46.534Z,4.84
2018-12-11T02:18:46.528Z,4.77
2018-12-11T02:19:46.513Z,4.80
2018-12-11T02:20:46.503Z,4.79
2018-12-11T02:21:46.490Z,4.79
2018-12-11T02:22:46.479Z,4.76
2018-12-11T02:23:46.470Z,4.79
2018-12-11T02:24:46.458Z,4.83
2018-12-11T02:25:46.447Z,4.80
2018-12-11T02:26:46.436Z,4.84
2018-12-11T02:27:46.426Z,4.70
2018-12-11T02:28:46.415Z,4.76
2018-12-11T02:29:46.403Z,4.79
2018-12-11T02:30:46.391Z,4.73
2018-12-11T02:31:46.383Z,4.75
2018-12-11T02:32:46.372Z,4.72
2018-12-11T02:33:46.374Z,4.79
2018-12-11T02:34:46.348Z,4.76
2018-12-11T02:35:46.341Z,4.72
2018-12-11T02:36:46.327Z,4.73
2018-12-11T02:37:46.314Z,4.80
2018-12-11T02:38:46.304Z,4.80
2018-12-11T02:39:46.294Z,4.79
2018-12-11T02:40:46.282Z,4.70
2018-12-11T02:41:46.282Z,4.80
2018-12-11T02:42:46.263Z,4.73
2018-12-11T02:43:46.250Z,4.73
2018-12-11T02:44:46.239Z,4.69
2018-12-11T02:45:46.227Z,4.70
2018-12-11T02:46:46.216Z,4.69
2018-12-11T02:47:46.207Z,4.77
2018-12-11T02:48:46.196Z,4.76
2018-12-11T02:49:46.183Z,4.79
2018-12-11T02:50:46.175Z,4.84
2018-12-11T02:51:46.163Z,4.73
2018-12-11T02:52:46.150Z,4.77
2018-12-11T02:53:46.141Z,4.70
2018-12-11T02:54:46.128Z,4.80
2018-12-11T02:55:46.119Z,4.77
2018-12-11T02:56:46.106Z,4.76
2018-12-11T02:57:46.107Z,4.75
2018-12-11T02:58:46.084Z,4.80
2018-12-11T02:59:46.073Z,4.80
2018-12-11T03:00:46.070Z,4.80
2018-12-11T03:01:46.051Z,4.79
2018-12-11T03:02:46.039Z,4.80
2018-12-11T03:03:46.030Z,4.83
2018-12-11T03:04:46.017Z,4.80
2018-12-11T03:05:46.009Z,4.86
2018-12-11T03:06:45.997Z,4.77
2018-12-11T03:07:45.985Z,4.77
2018-12-11T03:08:45.977Z,4.72
2018-12-11T03:09:45.963Z,4.75
2018-12-11T03:10:45.954Z,4.80
2018-12-11T03:11:45.941Z,4.80
2018-12-11T03:12:45.931Z,4.80
2018-12-11T03:13:45.920Z,4.80
2018-12-11T03:14:45.909Z,4.80
2018-12-11T03:15:45.902Z,4.86
2018-12-11T03:16:45.888Z,4.88
2018-12-11T03:17:45.875Z,4.83
2018-12-11T03:18:45.864Z,4.80
2018-12-11T03:19:45.852Z,4.86
2018-12-11T03:20:45.841Z,4.86
2018-12-11T03:21:45.831Z,4.86
2018-12-11T03:22:45.823Z,4.83
2018-12-11T03:23:45.811Z,4.84
2018-12-11T03:24:45.798Z,4.88
2018-12-11T03:25:45.791Z,4.86
2018-12-11T03:26:45.776Z,4.89
2018-12-11T03:27:45.765Z,4.89
2018-12-11T03:28:45.757Z,4.86
2018-12-11T03:29:45.746Z,4.88
2018-12-11T03:30:45.733Z,4.91
2018-12-11T03:31:45.732Z,4.86
2018-12-11T03:32:45.721Z,4.91
2018-12-11T03:33:45.699Z,4.91
2018-12-11T03:34:45.689Z,4.99
2018-12-11T03:35:45.678Z,4.96
2018-12-11T03:36:45.667Z,4.95
2018-12-11T03:37:45.654Z,4.92
2018-12-11T03:38:45.643Z,4.94
2018-12-11T03:39:45.639Z,4.92
2018-12-11T03:40:45.626Z,4.95
2018-12-11T03:41:45.643Z,4.92
2018-12-11T03:42:45.601Z,4.91
2018-12-11T03:43:45.591Z,4.98
2018-12-11T03:44:45.578Z,4.91
2018-12-11T03:45:45.569Z,4.89
2018-12-11T03:46:45.556Z,4.88
2018-12-11T03:47:45.545Z,4.95
2018-12-11T03:48:45.538Z,4.91
2018-12-11T03:49:45.524Z,4.95
2018-12-11T03:50:45.512Z,4.96
2018-12-11T03:51:45.501Z,4.96
2018-12-11T03:52:45.491Z,4.96
2018-12-11T03:53:45.480Z,4.96
2018-12-11T03:54:45.472Z,5.01
2018-12-11T03:55:45.458Z,4.98
2018-12-11T03:56:45.445Z,4.98
2018-12-11T03:57:45.445Z,5.01
2018-12-11T03:58:45.424Z,4.98
2018-12-11T03:59:45.413Z,4.99
2018-12-11T04:00:45.405Z,4.92
2018-12-11T04:01:45.401Z,4.98
2018-12-11T04:02:45.383Z,5.01
2018-12-11T04:03:45.378Z,4.98
2018-12-11T04:04:45.361Z,5.01
2018-12-11T04:05:45.348Z,4.99
2018-12-11T04:06:45.336Z,4.99
2018-12-11T04:07:45.324Z,5.02
2018-12-11T04:08:45.315Z,5.01
2018-12-11T04:09:45.302Z,4.95
2018-12-11T04:10:45.296Z,4.99
2018-12-11T04:11:45.283Z,4.98
2018-12-11T04:12:45.269Z,5.01
2018-12-11T04:13:45.257Z,5.05
2018-12-11T04:14:45.247Z,5.01
2018-12-11T04:15:45.237Z,5.01
2018-12-11T04:16:45.227Z,5.04
2018-12-11T04:17:45.213Z,4.95
2018-12-11T04:18:45.202Z,4.98
2018-12-11T04:19:45.193Z,4.96
2018-12-11T04:20:45.183Z,4.98
2018-12-11T04:21:45.172Z,4.98
2018-12-11T04:22:45.161Z,4.86
2018-12-11T04:23:45.147Z,4.94
2018-12-11T04:24:45.137Z,4.96
2018-12-11T04:25:45.127Z,4.80
2018-12-11T04:26:45.117Z,4.96
2018-12-11T04:27:45.106Z,4.92
2018-12-11T04:28:45.095Z,4.86
2018-12-11T04:29:45.083Z,4.92
2018-12-11T04:30:45.071Z,4.88
2018-12-11T04:31:45.061Z,4.84
2018-12-11T04:32:45.050Z,4.91
2018-12-11T04:33:45.038Z,4.89
2018-12-11T04:34:45.028Z,4.83
2018-12-11T04:35:45.030Z,4.98
2018-12-11T04:36:45.008Z,4.86
2018-12-11T04:37:44.997Z,4.91
2018-12-11T04:38:44.982Z,4.88
2018-12-11T04:39:44.984Z,4.91
2018-12-11T04:40:44.962Z,4.84
2018-12-11T04:41:44.950Z,4.91
2018-12-11T04:42:44.939Z,4.83
2018-12-11T04:43:44.929Z,4.86
2018-12-11T04:44:44.918Z,4.88
2018-12-11T04:45:44.907Z,4.88
2018-12-11T04:46:44.897Z,4.88
2018-12-11T04:47:44.883Z,4.80
2018-12-11T04:48:44.875Z,4.84
2018-12-11T04:49:44.862Z,4.84
2018-12-11T04:50:44.850Z,4.84
2018-12-11T04:51:44.839Z,4.83
2018-12-11T04:52:44.829Z,4.83
2018-12-11T04:53:44.818Z,4.86
2018-12-11T04:54:44.807Z,4.84
2018-12-11T04:55:44.797Z,4.84
2018-12-11T04:56:44.787Z,4.84
2018-12-11T04:57:44.775Z,4.88
2018-12-11T04:58:44.763Z,4.86
2018-12-11T04:59:44.753Z,4.80
2018-12-11T05:00:44.742Z,4.86
2018-12-11T05:01:44.730Z,4.80
2018-12-11T05:02:44.727Z,4.75
2018-12-11T05:03:44.709Z,4.79
2018-12-11T05:04:44.698Z,4.69
2018-12-11T05:05:44.686Z,4.75
2018-12-11T05:06:44.676Z,4.69
2018-12-11T05:07:44.663Z,4.73
2018-12-11T05:08:44.652Z,4.72
2018-12-11T05:09:44.642Z,4.70
2018-12-11T05:10:44.630Z,4.69
2018-12-11T05:11:44.620Z,4.67
2018-12-11T05:12:44.610Z,4.72
2018-12-11T05:13:44.598Z,4.65
2018-12-11T05:14:44.587Z,4.72
2018-12-11T05:15:44.580Z,4.70
2018-12-11T05:16:44.564Z,4.77
2018-12-11T05:17:44.554Z,4.70
2018-12-11T05:18:44.545Z,4.65
2018-12-11T05:19:44.532Z,4.72
2018-12-11T05:20:44.521Z,4.64
2018-12-11T05:21:44.510Z,4.65
2018-12-11T05:22:44.498Z,4.72
2018-12-11T05:23:44.487Z,4.73
2018-12-11T05:24:44.478Z,4.69
2018-12-11T05:25:44.467Z,4.72
2018-12-11T05:26:44.456Z,4.76
2018-12-11T05:27:44.445Z,4.72
2018-12-11T05:28:44.433Z,4.77
2018-12-11T05:29:44.421Z,4.70
2018-12-11T05:30:44.412Z,4.67
2018-12-11T05:31:44.402Z,4.67
2018-12-11T05:32:44.392Z,4.65
2018-12-11T05:33:44.380Z,4.67
2018-12-11T05:34:44.367Z,4.73
2018-12-11T05:35:44.359Z,4.67
2018-12-11T05:36:44.345Z,4.65
2018-12-11T05:37:44.344Z,4.69
2018-12-11T05:38:44.323Z,4.69
2018-12-11T05:39:44.312Z,4.69
2018-12-11T05:40:44.302Z,4.69
2018-12-11T05:41:44.291Z,4.69
2018-12-11T05:42:44.280Z,4.64
2018-12-11T05:43:44.269Z,4.67
2018-12-11T05:44:44.259Z,4.67
2018-12-11T05:45:44.248Z,4.65
2018-12-11T05:46:44.236Z,4.62
2018-12-11T05:47:44.229Z,4.62
2018-12-11T05:48:44.213Z,4.64
2018-12-11T05:49:44.202Z,4.64
2018-12-11T05:50:44.193Z,4.75
2018-12-11T05:51:44.184Z,4.79
2018-12-11T05:52:44.168Z,4.80
2018-12-11T05:53:44.158Z,4.79
2018-12-11T05:54:44.147Z,4.76
2018-12-11T05:55:44.136Z,4.77
2018-12-11T05:56:44.127Z,4.79
2018-12-11T05:57:44.115Z,4.80
2018-12-11T05:58:44.102Z,4.77
2018-12-11T05:59:44.091Z,4.77
2018-12-11T06:00:44.081Z,4.77
2018-12-11T06:01:44.070Z,4.79
2018-12-11T06:02:44.059Z,4.70
2018-12-11T06:03:44.140Z,4.72
2018-12-11T06:04:44.040Z,4.65
2018-12-11T06:05:44.027Z,4.73
2018-12-11T06:06:44.015Z,4.70
2018-12-11T06:07:44.006Z,4.67
2018-12-11T06:08:43.997Z,4.67
2018-12-11T06:09:43.984Z,4.61
2018-12-11T06:10:43.972Z,4.70
2018-12-11T06:11:43.961Z,4.54
2018-12-11T06:12:43.949Z,4.50
2018-12-11T06:13:43.939Z,4.47
2018-12-11T06:14:43.953Z,4.58
2018-12-11T06:15:43.917Z,4.51
2018-12-11T06:16:43.905Z,4.47
2018-12-11T06:17:43.893Z,4.32
2018-12-11T06:18:43.883Z,4.36
2018-12-11T06:19:43.880Z,4.37
2018-12-11T06:20:43.863Z,4.34
2018-12-11T06:21:43.851Z,4.36
2018-12-11T06:22:43.839Z,4.39
2018-12-11T06:23:43.828Z,4.22
2018-12-11T06:24:43.820Z,4.28
2018-12-11T06:25:43.808Z,4.18
2018-12-11T06:26:43.798Z,4.18
2018-12-11T06:27:43.783Z,4.22
2018-12-11T06:28:43.773Z,4.21
2018-12-11T06:29:43.761Z,4.26
2018-12-11T06:30:43.752Z,4.26
2018-12-11T06:31:43.752Z,4.22
2018-12-11T06:32:43.732Z,4.21
2018-12-11T06:33:43.720Z,4.18
2018-12-11T06:34:43.708Z,4.24
2018-12-11T06:35:43.698Z,4.16
2018-12-11T06:36:43.685Z,4.22
2018-12-11T06:37:43.676Z,4.26
2018-12-11T06:38:43.662Z,4.25
2018-12-11T06:39:43.655Z,4.22
2018-12-11T06:40:43.641Z,4.22
2018-12-11T06:41:43.630Z,4.26
2018-12-11T06:42:43.618Z,4.19
2018-12-11T06:43:43.608Z,4.25
2018-12-11T06:44:43.595Z,4.18
2018-12-11T06:45:43.585Z,4.26
2018-12-11T06:46:43.574Z,4.21
2018-12-11T06:47:43.564Z,4.16
2018-12-11T06:48:43.557Z,4.19
2018-12-11T06:49:43.546Z,4.19
2018-12-11T06:50:43.528Z,4.22
2018-12-11T06:51:43.519Z,4.21
2018-12-11T06:52:43.506Z,4.24
2018-12-11T06:53:43.498Z,4.16
2018-12-11T06:54:43.500Z,4.22
2018-12-11T06:55:43.473Z,4.22
2018-12-11T06:56:43.463Z,4.24
2018-12-11T06:57:43.455Z,4.21
2018-12-11T06:58:43.442Z,4.19
2018-12-11T06:59:43.429Z,4.26
2018-12-11T07:00:43.420Z,4.25
2018-12-11T07:01:43.413Z,4.26
2018-12-11T07:02:43.400Z,4.24
2018-12-11T07:03:43.388Z,4.24
2018-12-11T07:04:43.376Z,4.29
2018-12-11T07:05:43.406Z,4.24
2018-12-11T07:06:43.354Z,4.32
2018-12-11T07:07:43.341Z,4.32
2018-12-11T07:08:43.330Z,4.36
2018-12-11T07:09:43.327Z,4.19
2018-12-11T07:10:43.310Z,4.34
2018-12-11T07:11:43.299Z,4.36
2018-12-11T07:12:43.288Z,4.29
2018-12-11T07:13:43.274Z,4.32
2018-12-11T07:14:43.264Z,4.33
2018-12-11T07:15:43.254Z,4.40
2018-12-11T07:16:43.242Z,4.37
2018-12-11T07:17:43.231Z,4.39
2018-12-11T07:18:43.220Z,4.40
2018-12-11T07:19:43.208Z,4.39
2018-12-11T07:20:43.199Z,4.36
2018-12-11T07:21:43.187Z,4.39
2018-12-11T07:22:43.179Z,4.37
2018-12-11T07:23:43.171Z,4.34
2018-12-11T07:24:43.155Z,4.40
2018-12-11T07:25:43.149Z,4.32
2018-12-11T07:26:43.135Z,4.40
2018-12-11T07:27:43.122Z,4.40
2018-12-11T07:28:43.112Z,4.34
2018-12-11T07:29:43.126Z,4.44
2018-12-11T07:30:43.106Z,4.44
2018-12-11T07:31:43.076Z,4.46
2018-12-11T07:32:43.066Z,4.47
2018-12-11T07:33:43.057Z,4.47
2018-12-11T07:34:43.043Z,4.51
2018-12-11T07:35:43.036Z,4.54
2018-12-11T07:36:43.022Z,4.46
2018-12-11T07:37:43.014Z,4.51
2018-12-11T07:38:43.002Z,4.46
2018-12-11T07:39:42.991Z,4.44
2018-12-11T07:40:42.978Z,4.40
2018-12-11T07:41:42.968Z,4.44
2018-12-11T07:42:42.954Z,4.34
2018-12-11T07:43:42.944Z,4.43
2018-12-11T07:44:42.933Z,4.34
2018-12-11T07:45:42.922Z,4.43
2018-12-11T07:46:42.913Z,4.47
2018-12-11T07:47:42.903Z,4.40
2018-12-11T07:48:42.891Z,4.46
2018-12-11T07:49:42.883Z,4.46
2018-12-11T07:50:42.870Z,4.43
2018-12-11T07:51:42.859Z,4.44
2018-12-11T07:52:42.847Z,4.34
2018-12-11T07:53:42.838Z,4.46
2018-12-11T07:54:42.823Z,4.42
2018-12-11T07:55:42.816Z,4.33
2018-12-11T07:56:42.806Z,4.43
2018-12-11T07:57:42.798Z,4.40
2018-12-11T07:58:42.782Z,4.42
2018-12-11T07:59:42.769Z,4.42
2018-12-11T08:00:42.758Z,4.34
2018-12-11T08:01:42.747Z,4.40
2018-12-11T08:02:42.737Z,4.50
2018-12-11T08:03:42.728Z,4.40
2018-12-11T08:04:42.716Z,4.44
2018-12-11T08:05:42.702Z,4.40
2018-12-11T08:06:42.693Z,4.36
2018-12-11T08:07:42.683Z,4.37
2018-12-11T08:08:42.672Z,4.28
2018-12-11T08:09:42.659Z,4.19
2018-12-11T08:10:42.665Z,4.18
2018-12-11T08:11:42.638Z,4.21
2018-12-11T08:12:42.627Z,4.32
2018-12-11T08:13:42.618Z,4.33
2018-12-11T08:14:42.607Z,4.33
2018-12-11T08:15:42.595Z,4.33
2018-12-11T08:16:42.584Z,4.36
2018-12-11T08:17:42.575Z,4.37
2018-12-11T08:18:42.562Z,4.34
2018-12-11T08:19:42.550Z,4.36
2018-12-11T08:20:42.537Z,4.36
2018-12-11T08:21:42.530Z,4.24
2018-12-11T08:22:42.523Z,4.22
2018-12-11T08:23:42.507Z,4.19
2018-12-11T08:24:42.495Z,4.19
2018-12-11T08:25:42.481Z,4.25
2018-12-11T08:26:42.473Z,4.24
2018-12-11T08:27:42.523Z,4.19
2018-12-11T08:28:42.450Z,4.21
2018-12-11T08:29:42.441Z,4.28
2018-12-11T08:30:42.432Z,4.18
2018-12-11T08:31:42.417Z,4.25
2018-12-11T08:32:42.412Z,4.21
2018-12-11T08:33:42.397Z,4.22
2018-12-11T08:34:42.383Z,4.26
2018-12-11T08:35:42.374Z,4.29
2018-12-11T08:36:42.364Z,4.19
2018-12-11T08:37:42.351Z,4.22
2018-12-11T08:38:42.339Z,4.19
2018-12-11T08:39:42.331Z,4.21
2018-12-11T08:40:42.320Z,4.16
2018-12-11T08:41:42.306Z,4.19
2018-12-11T08:42:42.299Z,4.28
2018-12-11T08:43:42.287Z,4.25
2018-12-11T08:44:42.274Z,4.21
2018-12-11T08:45:42.262Z,4.24
2018-12-11T08:46:42.252Z,4.29
2018-12-11T08:47:42.246Z,4.18
2018-12-11T08:48:42.230Z,4.29
2018-12-11T08:49:42.218Z,4.33
2018-12-11T08:50:42.211Z,4.32
2018-12-11T08:51:42.198Z,4.37
2018-12-11T08:52:42.187Z,4.34
2018-12-11T08:53:42.175Z,4.44
2018-12-11T08:54:42.163Z,4.46
2018-12-11T08:55:42.156Z,4.32
2018-12-11T08:56:42.142Z,4.47
2018-12-11T08:57:42.131Z,4.50
2018-12-11T08:58:42.121Z,4.51
2018-12-11T08:59:42.117Z,4.57
2018-12-11T09:00:42.099Z,4.42
2018-12-11T09:01:42.100Z,4.47
2018-12-11T09:02:42.075Z,4.46
2018-12-11T09:03:42.065Z,4.51
2018-12-11T09:04:42.056Z,4.47
2018-12-11T09:05:42.051Z,4.28
2018-12-11T09:06:42.037Z,4.47
2018-12-11T09:07:42.027Z,4.43
2018-12-11T09:08:42.023Z,4.36
2018-12-11T09:09:42.001Z,4.37
2018-12-11T09:10:41.993Z,4.42
2018-12-11T09:11:41.978Z,4.37
2018-12-11T09:12:41.969Z,4.34
2018-12-11T09:14:01.594Z,4.36
2018-12-11T09:15:25.002Z,4.33
2018-12-11T09:16:24.994Z,4.19
2018-12-11T09:17:24.979Z,4.22
2018-12-11T09:18:24.966Z,4.22
2018-12-11T09:19:24.957Z,4.24
2018-12-11T09:20:24.945Z,4.28
2018-12-11T09:21:24.935Z,4.21
2018-12-11T09:22:24.924Z,4.21
2018-12-11T09:23:24.923Z,4.22
2018-12-11T09:24:24.900Z,4.18
2018-12-11T09:25:24.891Z,4.22
2018-12-11T09:26:24.880Z,4.21
2018-12-11T09:27:24.869Z,4.26
2018-12-11T09:28:24.859Z,4.21
2018-12-11T09:29:24.847Z,4.18
2018-12-11T09:30:24.839Z,4.24
2018-12-11T09:31:24.824Z,4.34
2018-12-11T09:32:24.814Z,4.29
2018-12-11T09:33:24.802Z,4.22
2018-12-11T09:34:24.790Z,4.33
2018-12-11T09:35:24.780Z,4.34
2018-12-11T09:36:24.767Z,4.29
2018-12-11T09:37:24.756Z,4.39
2018-12-11T09:38:24.747Z,4.29
2018-12-11T09:39:24.733Z,4.32
2018-12-11T09:40:24.763Z,4.37
2018-12-11T09:41:24.712Z,4.37
2018-12-11T09:42:27.976Z,4.32
2018-12-11T09:43:24.689Z,4.34
2018-12-11T09:44:24.679Z,4.40
2018-12-11T09:45:24.667Z,4.46
2018-12-11T09:46:24.657Z,4.44
2018-12-11T09:47:24.646Z,4.44
2018-12-11T09:48:24.634Z,4.50
2018-12-11T09:49:24.624Z,4.46
2018-12-11T09:50:24.613Z,4.39
2018-12-11T09:51:24.600Z,4.47
2018-12-11T09:52:24.590Z,4.54
2018-12-11T09:53:24.579Z,4.54
2018-12-11T09:54:24.569Z,4.52
2018-12-11T09:55:24.556Z,4.51
2018-12-11T09:56:24.552Z,4.54
2018-12-11T09:57:24.534Z,4.43
2018-12-11T09:58:24.528Z,4.47
2018-12-11T09:59:24.510Z,4.59
2018-12-11T10:00:27.231Z,4.46
2018-12-11T10:01:24.488Z,4.50
2018-12-11T10:02:24.479Z,4.43
2018-12-11T10:03:24.467Z,4.43
2018-12-11T10:04:24.456Z,4.50
2018-12-11T10:05:24.444Z,4.44
2018-12-11T10:06:24.433Z,4.46
2018-12-11T10:07:24.423Z,4.54
2018-12-11T10:08:24.412Z,4.57
2018-12-11T10:09:24.401Z,4.47
2018-12-11T10:10:24.389Z,4.50
2018-12-11T10:11:24.377Z,4.44
2018-12-11T10:12:24.368Z,4.44
2018-12-11T10:13:24.357Z,4.44
2018-12-11T10:14:24.346Z,4.50
2018-12-11T10:15:24.337Z,4.54
2018-12-11T10:16:24.323Z,4.50
2018-12-11T10:17:24.312Z,4.62
2018-12-11T10:18:24.300Z,4.64
2018-12-11T10:19:24.291Z,4.62
2018-12-11T10:20:24.278Z,4.55
2018-12-11T10:21:24.270Z,4.51
2018-12-11T10:22:24.255Z,4.54
2018-12-11T10:23:24.244Z,4.54
2018-12-11T10:24:24.250Z,4.58
2018-12-11T10:25:24.225Z,4.57
2018-12-11T10:26:24.213Z,4.64
2018-12-11T10:27:24.200Z,4.59
2018-12-11T10:28:24.189Z,4.55
2018-12-11T10:29:24.197Z,4.55
2018-12-11T10:30:24.170Z,4.44
2018-12-11T10:31:24.160Z,4.50
2018-12-11T10:32:24.147Z,4.54
2018-12-11T10:33:24.134Z,4.50
2018-12-11T10:34:24.123Z,4.50
2018-12-11T10:35:24.110Z,4.40
2018-12-11T10:36:24.099Z,4.59
2018-12-11T10:37:24.093Z,4.54
2018-12-11T10:38:24.083Z,4.55
2018-12-11T10:39:24.066Z,4.47
2018-12-11T10:40:24.055Z,4.42
2018-12-11T10:42:51.990Z,4.47
2018-12-11T10:44:11.606Z,4.50
2018-12-11T10:45:34.013Z,4.51
2018-12-11T10:46:34.022Z,4.44
2018-12-11T10:47:33.992Z,4.37
2018-12-11T10:48:33.981Z,4.33
2018-12-11T10:49:33.966Z,4.34
2018-12-11T10:50:33.955Z,4.34
2018-12-11T10:51:33.950Z,4.33
2018-12-11T10:52:33.936Z,4.21
2018-12-11T10:53:33.922Z,4.19
2018-12-11T10:54:33.911Z,4.21
2018-12-11T10:55:33.905Z,4.29
2018-12-11T10:56:33.888Z,4.21
2018-12-11T10:57:33.878Z,4.26
2018-12-11T10:58:33.869Z,4.24
2018-12-11T10:59:33.862Z,4.26
2018-12-11T11:00:33.842Z,4.29
2018-12-11T11:01:33.832Z,4.22
2018-12-11T11:02:33.821Z,4.24
2018-12-11T11:03:33.814Z,4.21
2018-12-11T11:04:33.800Z,4.22
2018-12-11T11:05:33.794Z,4.25
2018-12-11T11:06:33.778Z,4.21
2018-12-11T11:07:33.767Z,4.25
2018-12-11T11:08:33.756Z,4.21
2018-12-11T11:09:33.743Z,4.22
2018-12-11T11:10:33.753Z,4.21
2018-12-11T11:11:33.738Z,4.22
2018-12-11T11:12:33.721Z,4.24
2018-12-11T11:13:33.699Z,4.21
2018-12-11T11:14:33.689Z,4.21
2018-12-11T11:15:33.678Z,4.18
2018-12-11T11:16:33.669Z,4.32
2018-12-11T11:17:33.655Z,4.32
2018-12-11T11:18:33.644Z,4.25
2018-12-11T11:19:33.634Z,4.29
2018-12-11T11:20:33.625Z,4.25
2018-12-11T11:21:33.609Z,4.18
2018-12-11T11:22:33.601Z,4.19
2018-12-11T11:23:33.587Z,4.21
2018-12-11T11:24:33.579Z,4.26
2018-12-11T11:25:33.566Z,4.19
2018-12-11T11:26:33.554Z,4.19
2018-12-11T11:27:33.544Z,4.18
2018-12-11T11:28:33.533Z,4.16
2018-12-11T11:29:33.525Z,4.22
2018-12-11T11:30:33.511Z,4.12
2018-12-11T11:31:33.501Z,4.18
2018-12-11T11:32:33.491Z,4.12
2018-12-11T11:33:33.477Z,4.15
2018-12-11T11:34:33.478Z,4.21
2018-12-11T11:35:33.455Z,4.12
2018-12-11T11:36:33.446Z,4.10
2018-12-11T11:37:33.433Z,4.12
2018-12-11T11:38:33.421Z,4.08
2018-12-11T11:39:33.415Z,4.07
2018-12-11T11:40:33.405Z,4.07
2018-12-11T11:41:33.388Z,4.07
2018-12-11T11:42:33.377Z,4.14
2018-12-11T11:43:33.374Z,4.12
2018-12-11T11:44:33.355Z,4.16
2018-12-11T11:45:33.344Z,4.14
2018-12-11T11:46:33.334Z,4.14
2018-12-11T11:47:33.320Z,4.15
2018-12-11T11:48:33.312Z,4.10
2018-12-11T11:49:33.302Z,4.19
2018-12-11T11:50:33.289Z,4.14
2018-12-11T11:51:33.279Z,4.14
2018-12-11T11:52:33.267Z,4.16
2018-12-11T11:53:33.256Z,4.08
2018-12-11T11:54:33.242Z,4.18
2018-12-11T11:55:33.235Z,4.14
2018-12-11T11:56:33.220Z,4.18
2018-12-11T11:57:33.211Z,4.16
2018-12-11T11:58:33.198Z,4.14
2018-12-11T11:59:33.198Z,4.18
2018-12-11T12:00:33.180Z,4.16
2018-12-11T12:01:33.166Z,4.14
2018-12-11T12:02:33.598Z,4.14
2018-12-11T12:03:33.142Z,4.12
2018-12-11T12:04:33.133Z,4.14
2018-12-11T12:05:33.119Z,4.15
2018-12-11T12:06:33.110Z,4.16
2018-12-11T12:07:33.098Z,4.12
2018-12-11T12:08:33.086Z,4.12
2018-12-11T12:09:33.077Z,4.14
2018-12-11T12:10:33.066Z,4.16
2018-12-11T12:11:33.054Z,4.19
2018-12-11T12:12:33.064Z,4.12
2018-12-11T12:13:33.033Z,4.15
2018-12-11T12:14:33.025Z,4.12
2018-12-11T12:15:33.012Z,4.15
2018-12-11T12:16:32.997Z,4.18
2018-12-11T12:17:32.992Z,4.15
2018-12-11T12:18:32.977Z,4.14
2018-12-11T12:19:32.967Z,4.14
2018-12-11T12:20:32.954Z,4.04
2018-12-11T12:21:32.945Z,4.07
2018-12-11T12:22:32.932Z,4.03
2018-12-11T12:23:32.922Z,4.04
2018-12-11T12:24:32.908Z,4.00
2018-12-11T12:25:32.900Z,3.94
2018-12-11T12:26:32.891Z,4.01
2018-12-11T12:27:32.877Z,3.98
2018-12-11T12:28:32.867Z,4.04
2018-12-11T12:29:32.855Z,4.01
2018-12-11T12:30:32.847Z,4.01
2018-12-11T12:31:32.833Z,4.01
2018-12-11T12:32:32.821Z,3.98
2018-12-11T12:33:32.811Z,3.97
2018-12-11T12:34:32.798Z,3.96
2018-12-11T12:35:32.791Z,4.01
2018-12-11T12:36:32.778Z,3.98
2018-12-11T12:37:32.766Z,3.88
2018-12-11T12:38:32.754Z,3.88
2018-12-11T12:39:32.747Z,3.83
2018-12-11T12:40:32.735Z,3.92
2018-12-11T12:41:32.723Z,3.89
2018-12-11T12:42:32.711Z,3.96
2018-12-11T12:43:32.700Z,3.88
2018-12-11T12:44:32.689Z,3.89
2018-12-11T12:45:32.680Z,3.86
2018-12-11T12:46:32.667Z,3.85
2018-12-11T12:47:32.658Z,3.85
2018-12-11T12:48:32.644Z,3.85
2018-12-11T12:49:32.636Z,3.88
2018-12-11T12:50:32.622Z,3.88
2018-12-11T12:51:32.613Z,3.86
2018-12-11T12:52:32.604Z,3.88
2018-12-11T12:53:32.589Z,3.88
2018-12-11T12:54:32.579Z,3.88
2018-12-11T12:55:32.568Z,3.89
2018-12-11T12:56:32.554Z,3.88
2018-12-11T12:57:32.547Z,3.88
2018-12-11T12:58:32.536Z,3.85
2018-12-11T12:59:32.521Z,3.83
2018-12-11T13:00:32.513Z,3.85
2018-12-11T13:01:32.501Z,3.89
2018-12-11T13:02:32.490Z,3.86
2018-12-11T13:03:32.477Z,3.88
2018-12-11T13:04:32.488Z,3.94
2018-12-11T13:05:32.455Z,3.83
2018-12-11T13:06:32.444Z,3.89
2018-12-11T13:07:32.431Z,3.88
2018-12-11T13:08:32.424Z,3.86
2018-12-11T13:09:32.412Z,3.83
2018-12-11T13:10:33.740Z,3.85
2018-12-11T13:11:32.387Z,3.92
2018-12-11T13:12:32.378Z,3.86
2018-12-11T13:13:32.370Z,3.88
2018-12-11T13:14:32.356Z,3.94
2018-12-11T13:15:32.343Z,3.96
2018-12-11T13:16:32.365Z,3.94
2018-12-11T13:17:32.323Z,3.92
2018-12-11T13:18:32.310Z,4.00
2018-12-11T13:19:32.300Z,3.94
2018-12-11T13:20:32.290Z,3.96
2018-12-11T13:21:32.277Z,4.00